createdAt,value
2022-11-10T00:00:42.645Z,25.35
2022-11-10T00:03:11.960Z,25.23
2022-11-10T00:05:40.640Z,26.83
2022-11-10T00:08:13.222Z,20.70
2022-11-10T00:10:56.404Z,25.48
2022-11-10T00:13:28.740Z,17.63
2022-11-10T00:16:16.306Z,22.17
2022-11-10T00:18:44.601Z,19.02
2022-11-10T00:21:13.933Z,15.38
2022-11-10T00:23:43.891Z,19.17
2022-11-10T00:26:14.523Z,19.45
2022-11-10T00:28:43.418Z,18.23
2022-11-10T00:31:12.244Z,18.40
2022-11-10T00:33:43.594Z,20.85
2022-11-10T00:36:14.206Z,17.15
2022-11-10T00:38:43.834Z,20.58
2022-11-10T00:41:12.198Z,21.88
2022-11-10T00:43:40.425Z,19.75
2022-11-10T00:46:08.658Z,21.23
2022-11-10T00:48:37.197Z,26.17
2022-11-10T00:51:05.581Z,15.52
2022-11-10T00:53:33.892Z,19.05
2022-11-10T00:56:03.603Z,19.67
2022-11-10T00:58:31.824Z,19.85
2022-11-10T01:01:03.678Z,21.80
2022-11-10T01:03:35.371Z,20.10
2022-11-10T01:06:06.486Z,14.00
2022-11-10T01:08:34.811Z,21.20
2022-11-10T01:11:05.677Z,22.85
2022-11-10T01:13:34.429Z,25.73
2022-11-10T01:16:06.148Z,17.00
2022-11-10T01:18:34.816Z,24.10
2022-11-10T01:21:03.486Z,30.40
2022-11-10T01:23:31.854Z,28.77
2022-11-10T01:26:00.407Z,24.45
2022-11-10T01:28:30.667Z,20.95
2022-11-10T01:30:59.574Z,20.52
2022-11-10T01:33:31.199Z,22.35
2022-11-10T01:35:59.505Z,22.40
2022-11-10T01:38:28.626Z,20.17
2022-11-10T01:40:57.924Z,17.55
2022-11-10T01:43:27.032Z,20.58
2022-11-10T01:46:00.529Z,16.77
2022-11-10T01:48:33.898Z,22.15
2022-11-10T01:51:07.211Z,20.40
2022-11-10T01:53:39.889Z,13.55
2022-11-10T01:56:10.956Z,26.92
2022-11-10T01:58:42.830Z,21.15
2022-11-10T02:01:15.522Z,19.23
2022-11-10T02:03:49.160Z,14.07
2022-11-10T02:06:18.713Z,19.70
2022-11-10T02:08:47.469Z,23.17
2022-11-10T02:11:15.989Z,18.60
2022-11-10T02:13:44.862Z,18.85
2022-11-10T02:16:14.773Z,21.80
2022-11-10T02:18:43.198Z,16.75
2022-11-10T02:21:12.860Z,25.30
2022-11-10T02:23:50.069Z,16.60
2022-11-10T02:26:21.647Z,28.77
2022-11-10T02:28:50.133Z,17.13
2022-11-10T02:31:18.438Z,22.50
2022-11-10T02:33:46.748Z,21.27
2022-11-10T02:36:16.435Z,15.20
2022-11-10T02:38:44.682Z,20.85
2022-11-10T02:41:13.160Z,32.90
2022-11-10T02:43:41.609Z,18.33
2022-11-10T02:46:09.893Z,25.00
2022-11-10T02:48:38.239Z,15.43
2022-11-10T02:51:06.578Z,16.92
2022-11-10T02:53:36.229Z,17.25
2022-11-10T02:56:04.577Z,18.90
2022-11-10T02:58:32.915Z,17.05
2022-11-10T03:01:01.284Z,18.60
2022-11-10T03:03:29.783Z,24.10
2022-11-10T03:05:58.126Z,22.52
2022-11-10T03:08:28.135Z,14.65
2022-11-10T03:10:58.461Z,26.90
2022-11-10T03:13:35.618Z,15.68
2022-11-10T03:16:13.527Z,16.58
2022-11-10T03:18:41.795Z,13.98
2022-11-10T03:21:10.194Z,22.95
2022-11-10T03:23:38.833Z,18.23
2022-11-10T03:26:08.870Z,15.63
2022-11-10T03:28:37.204Z,26.95
2022-11-10T03:31:05.588Z,25.48
2022-11-10T03:33:34.086Z,18.33
2022-11-10T03:36:02.352Z,18.65
2022-11-10T03:38:30.647Z,19.20
2022-11-10T03:43:51.100Z,19.70
2022-11-10T03:46:19.797Z,15.73
2022-11-10T03:48:53.214Z,18.65
2022-11-10T03:51:22.264Z,17.33
2022-11-10T03:53:50.869Z,17.83
2022-11-10T03:56:21.711Z,21.67
2022-11-10T03:58:51.422Z,12.65
2022-11-10T04:01:19.811Z,25.60
2022-11-10T04:03:51.489Z,22.17
2022-11-10T04:06:42.504Z,17.20
2022-11-10T04:09:11.141Z,29.10
2022-11-10T04:11:56.790Z,20.80
2022-11-10T04:14:44.013Z,19.92
2022-11-10T04:17:12.271Z,19.70
2022-11-10T04:19:40.595Z,25.95
2022-11-10T04:22:28.875Z,19.80
2022-11-10T04:24:59.448Z,14.50
2022-11-10T04:27:27.793Z,23.10
2022-11-10T04:29:57.396Z,26.17
2022-11-10T04:32:26.147Z,19.10
2022-11-10T04:34:54.348Z,25.05
2022-11-10T04:37:22.719Z,15.50
2022-11-10T04:39:50.967Z,15.63
2022-11-10T04:42:19.302Z,23.85
2022-11-10T04:44:47.576Z,24.63
2022-11-10T04:47:17.233Z,20.63
2022-11-10T04:49:45.567Z,18.42
2022-11-10T04:52:16.330Z,17.33
2022-11-10T04:54:44.598Z,20.00
2022-11-10T04:57:13.124Z,18.00
2022-11-10T04:59:41.436Z,20.35
2022-11-10T05:02:09.701Z,21.00
2022-11-10T05:04:39.385Z,17.85
2022-11-10T05:07:07.676Z,22.98
2022-11-10T05:09:38.223Z,24.02
2022-11-10T05:12:06.828Z,17.60
2022-11-10T05:14:37.549Z,24.48
2022-11-10T05:17:05.884Z,25.27
2022-11-10T05:19:34.307Z,14.05
2022-11-10T05:22:07.033Z,18.27
2022-11-10T05:24:37.786Z,15.48
2022-11-10T05:27:06.040Z,19.92
2022-11-10T05:29:34.362Z,22.60
2022-11-10T05:32:02.658Z,21.02
2022-11-10T05:34:31.015Z,17.75
2022-11-10T05:36:59.396Z,18.75
2022-11-10T05:39:29.026Z,24.38
2022-11-10T05:41:57.365Z,22.45
2022-11-10T05:44:26.000Z,15.15
2022-11-10T05:46:56.610Z,19.17
2022-11-10T05:49:28.518Z,24.35
2022-11-10T05:51:56.787Z,26.35
2022-11-10T05:54:25.106Z,18.80
2022-11-10T05:56:54.894Z,21.90
2022-11-10T05:59:23.165Z,24.10
2022-11-10T06:01:51.666Z,16.48
2022-11-10T06:04:19.892Z,19.38
2022-11-10T06:06:49.812Z,19.00
2022-11-10T06:09:18.148Z,21.75
2022-11-10T06:11:46.430Z,29.42
2022-11-10T06:14:16.130Z,18.58
2022-11-10T06:16:44.341Z,23.17
2022-11-10T06:19:12.713Z,25.40
2022-11-10T06:21:40.967Z,19.88
2022-11-10T06:24:10.945Z,19.08
2022-11-10T06:26:39.311Z,23.75
2022-11-10T06:29:07.629Z,18.50
2022-11-10T06:31:37.685Z,17.75
2022-11-10T06:34:06.033Z,27.85
2022-11-10T06:36:34.330Z,22.35
2022-11-10T06:39:02.703Z,14.02
2022-11-10T06:41:30.949Z,21.75
2022-11-10T06:44:02.091Z,24.23
2022-11-10T06:46:30.416Z,15.07
2022-11-10T06:49:01.362Z,22.80
2022-11-10T06:51:29.590Z,27.10
2022-11-10T06:53:57.859Z,12.77
2022-11-10T06:56:26.295Z,25.73
2022-11-10T06:58:54.547Z,21.17
2022-11-10T07:01:26.721Z,25.85
2022-11-10T07:04:18.189Z,26.83
2022-11-10T07:06:47.062Z,20.02
2022-11-10T07:09:15.418Z,16.65
2022-11-10T07:11:43.748Z,19.30
2022-11-10T07:14:12.280Z,23.50
2022-11-10T07:16:40.643Z,17.95
2022-11-10T07:19:08.974Z,34.58
2022-11-10T07:21:37.230Z,19.33
2022-11-10T07:24:08.103Z,21.70
2022-11-10T07:26:36.758Z,26.88
2022-11-10T07:29:05.050Z,23.08
2022-11-10T07:31:33.331Z,17.05
2022-11-10T07:34:01.687Z,22.83
2022-11-10T07:36:30.029Z,15.85
2022-11-10T07:38:58.253Z,21.27
2022-11-10T07:41:27.854Z,19.42
2022-11-10T07:43:56.145Z,20.73
2022-11-10T07:46:24.666Z,27.10
2022-11-10T07:48:53.010Z,24.45
2022-11-10T07:51:21.400Z,21.80
2022-11-10T07:53:49.714Z,25.38
2022-11-10T07:56:17.961Z,17.92
2022-11-10T07:58:49.605Z,14.80
2022-11-10T08:01:17.890Z,21.27
2022-11-10T08:03:46.236Z,23.92
2022-11-10T08:06:14.534Z,14.35
2022-11-10T08:08:42.982Z,20.73
2022-11-10T08:11:11.317Z,20.30
2022-11-10T08:13:39.942Z,25.13
2022-11-10T08:16:09.885Z,13.82
2022-11-10T08:18:38.104Z,16.67
2022-11-10T08:21:06.716Z,12.13
2022-11-10T08:23:35.285Z,17.85
2022-11-10T08:26:03.608Z,17.83
2022-11-10T08:28:31.875Z,23.67
2022-11-10T08:31:05.152Z,19.25
2022-11-10T08:33:35.374Z,26.45
2022-11-10T08:36:03.720Z,20.83
2022-11-10T08:38:35.203Z,18.80
2022-11-10T08:41:03.489Z,17.77
2022-11-10T08:43:31.785Z,14.32
2022-11-10T08:46:01.683Z,12.75
2022-11-10T08:48:30.251Z,16.90
2022-11-10T08:51:01.262Z,15.32
2022-11-10T08:53:29.702Z,17.15
2022-11-10T08:56:00.188Z,11.15
2022-11-10T08:58:28.699Z,18.92
2022-11-10T09:00:58.318Z,13.30
2022-11-10T09:03:27.168Z,23.58
2022-11-10T09:05:58.508Z,12.07
2022-11-10T09:08:28.457Z,12.02
2022-11-10T09:10:57.065Z,13.23
2022-11-10T09:13:29.984Z,18.10
2022-11-10T09:16:02.604Z,15.35
2022-11-10T09:18:31.180Z,11.45
2022-11-10T09:20:59.825Z,10.10
2022-11-10T09:23:29.587Z,10.20
2022-11-10T09:25:58.224Z,14.43
2022-11-10T09:28:26.760Z,11.25
2022-11-10T09:30:55.107Z,9.95
2022-11-10T09:33:23.774Z,8.02
2022-11-10T09:35:52.557Z,17.65
2022-11-10T09:38:21.126Z,10.75
2022-11-10T09:41:03.021Z,8.48
2022-11-10T09:43:38.622Z,11.57
2022-11-10T09:46:15.250Z,9.45
2022-11-10T09:48:48.671Z,12.93
2022-11-10T09:51:22.016Z,11.32
2022-11-10T09:53:52.855Z,7.93
2022-11-10T09:56:28.696Z,10.00
2022-11-10T09:58:56.995Z,10.15
2022-11-10T10:01:36.236Z,7.90
2022-11-10T10:04:15.975Z,13.00
2022-11-10T10:07:10.211Z,14.23
2022-11-10T10:09:46.523Z,5.18
2022-11-10T10:12:41.447Z,5.50
2022-11-10T10:15:25.858Z,6.70
2022-11-10T10:18:03.980Z,8.07
2022-11-10T10:20:46.972Z,6.80
2022-11-10T10:23:40.670Z,8.25
2022-11-10T10:26:17.135Z,8.88
2022-11-10T10:28:48.507Z,13.05
2022-11-10T10:31:20.346Z,13.02
2022-11-10T10:33:49.247Z,11.75
2022-11-10T10:36:21.146Z,12.90
2022-11-10T10:38:52.988Z,7.32
2022-11-10T10:41:26.144Z,17.58
2022-11-10T10:43:58.219Z,9.40
2022-11-10T10:46:32.880Z,5.53
2022-11-10T10:49:31.982Z,12.77
2022-11-10T10:52:08.170Z,8.25
2022-11-10T10:54:40.340Z,5.95
2022-11-10T10:57:25.656Z,8.23
2022-11-10T11:00:16.548Z,7.40
2022-11-10T11:02:44.916Z,5.32
2022-11-10T11:05:16.214Z,4.60
2022-11-10T11:07:56.693Z,5.88
2022-11-10T11:10:26.957Z,4.65
2022-11-10T11:12:55.686Z,8.48
2022-11-10T11:15:28.488Z,10.23
2022-11-10T11:17:59.362Z,5.57
2022-11-10T11:20:37.918Z,9.32
2022-11-10T11:23:19.553Z,5.00
2022-11-10T11:25:51.140Z,7.05
2022-11-10T11:28:29.828Z,9.93
2022-11-10T11:31:08.202Z,10.55
2022-11-10T11:33:42.448Z,8.77
2022-11-10T11:36:22.238Z,3.65
2022-11-10T11:38:57.255Z,7.60
2022-11-10T11:41:35.496Z,6.95
2022-11-10T11:44:22.376Z,7.97
2022-11-10T11:47:02.252Z,7.28
2022-11-10T11:49:51.191Z,3.30
2022-11-10T11:52:29.613Z,3.92
2022-11-10T11:55:13.443Z,5.15
2022-11-10T11:57:55.855Z,12.35
2022-11-10T12:00:24.722Z,5.80
2022-11-10T12:03:17.899Z,10.20
2022-11-10T12:05:58.297Z,5.47
2022-11-10T12:08:39.046Z,8.35
2022-11-10T12:11:17.554Z,4.43
2022-11-10T12:13:57.801Z,10.20
2022-11-10T12:16:29.764Z,6.45
2022-11-10T12:19:08.399Z,6.13
2022-11-10T12:21:45.254Z,7.25
2022-11-10T12:24:29.735Z,2.78
2022-11-10T12:27:01.510Z,6.85
2022-11-10T12:29:35.539Z,5.15
2022-11-10T12:32:10.861Z,9.57
2022-11-10T12:34:43.977Z,8.80
2022-11-10T12:37:22.269Z,4.45
2022-11-10T12:40:00.831Z,4.53
2022-11-10T12:42:33.223Z,7.30
2022-11-10T12:45:03.670Z,8.32
2022-11-10T12:47:39.693Z,8.27
2022-11-10T12:50:41.655Z,5.60
2022-11-10T12:53:19.662Z,5.60
2022-11-10T12:55:55.691Z,9.90
2022-11-10T12:58:24.501Z,10.13
2022-11-10T13:00:58.866Z,4.95
2022-11-10T13:03:30.098Z,7.22
2022-11-10T13:06:01.839Z,8.40
2022-11-10T13:08:34.865Z,4.70
2022-11-10T13:11:20.923Z,3.75
2022-11-10T13:13:59.223Z,4.13
2022-11-10T13:16:52.076Z,4.20
2022-11-10T13:19:49.725Z,3.70
2022-11-10T13:22:37.595Z,7.03
2022-11-10T13:25:43.307Z,4.55
2022-11-10T13:28:12.692Z,2.05
2022-11-10T13:30:43.614Z,6.53
2022-11-10T13:33:38.350Z,5.95
2022-11-10T13:36:09.029Z,4.28
2022-11-10T13:38:43.171Z,6.32
2022-11-10T13:41:24.759Z,3.28
2022-11-10T13:43:56.915Z,2.80
2022-11-10T13:46:36.357Z,6.38
2022-11-10T13:49:30.153Z,4.78
2022-11-10T13:52:09.408Z,4.40
2022-11-10T13:55:10.467Z,4.05
2022-11-10T13:58:01.183Z,5.97
2022-11-10T14:00:32.024Z,2.58
2022-11-10T14:03:02.230Z,8.38
2022-11-10T14:06:10.236Z,5.65
2022-11-10T14:08:51.575Z,4.40
2022-11-10T14:11:26.566Z,2.45
2022-11-10T14:14:00.209Z,3.75
2022-11-10T14:16:32.612Z,3.50
2022-11-10T14:19:05.491Z,4.45
2022-11-10T14:21:45.265Z,3.97
2022-11-10T14:24:22.945Z,4.95
2022-11-10T14:26:55.194Z,5.32
2022-11-10T14:29:35.889Z,4.28
2022-11-10T14:32:07.090Z,3.08
2022-11-10T14:34:47.562Z,7.13
2022-11-10T14:37:22.830Z,10.23
2022-11-10T14:39:54.580Z,3.45
2022-11-10T14:42:27.233Z,6.13
2022-11-10T14:45:15.790Z,4.13
2022-11-10T14:47:44.262Z,1.98
2022-11-10T14:50:24.996Z,5.85
2022-11-10T14:52:57.613Z,3.70
2022-11-10T14:55:30.190Z,9.07
2022-11-10T14:58:05.549Z,2.58
2022-11-10T15:00:37.199Z,4.22
2022-11-10T15:03:07.816Z,5.43
2022-11-10T15:05:36.822Z,4.20
2022-11-10T15:08:06.315Z,4.80
2022-11-10T15:10:46.898Z,9.45
2022-11-10T15:13:36.185Z,4.63
2022-11-10T15:16:25.481Z,3.55
2022-11-10T15:18:55.101Z,4.43
2022-11-10T15:21:29.075Z,6.65
2022-11-10T15:24:02.185Z,5.47
2022-11-10T15:26:35.255Z,7.15
2022-11-10T15:29:05.070Z,2.97
2022-11-10T15:31:36.713Z,8.73
2022-11-10T15:34:06.474Z,5.82
2022-11-10T15:36:39.734Z,3.53
2022-11-10T15:39:20.232Z,3.63
2022-11-10T15:41:49.919Z,3.53
2022-11-10T15:44:22.041Z,4.05
2022-11-10T15:46:53.944Z,5.03
2022-11-10T15:49:25.306Z,4.03
2022-11-10T15:51:57.371Z,2.25
2022-11-10T15:54:28.697Z,4.88
2022-11-10T15:56:57.079Z,6.18
2022-11-10T15:59:26.756Z,3.40
2022-11-10T16:01:55.272Z,5.32
2022-11-10T16:04:23.508Z,4.90
2022-11-10T16:06:51.836Z,4.45
2022-11-10T16:09:20.383Z,6.47
2022-11-10T16:11:48.699Z,5.32
2022-11-10T16:14:18.968Z,3.72
2022-11-10T16:16:48.681Z,7.93
2022-11-10T16:19:17.106Z,4.55
2022-11-10T16:21:45.682Z,5.10
2022-11-10T16:24:13.970Z,4.95
2022-11-10T16:26:42.353Z,12.05
2022-11-10T16:29:14.383Z,3.47
2022-11-10T16:31:42.850Z,3.22
2022-11-10T16:34:14.867Z,1.77
2022-11-10T16:36:46.237Z,5.45
2022-11-10T16:39:16.060Z,6.20
2022-11-10T16:41:44.530Z,1.92
2022-11-10T16:44:14.203Z,10.10
2022-11-10T16:46:44.326Z,6.60
2022-11-10T16:49:26.040Z,5.68
2022-11-10T16:51:54.443Z,6.93
2022-11-10T16:54:22.822Z,2.58
2022-11-10T16:56:51.163Z,6.38
2022-11-10T16:59:19.488Z,2.90
2022-11-10T17:01:49.027Z,3.63
2022-11-10T17:04:17.417Z,10.13
2022-11-10T17:06:47.201Z,6.18
2022-11-10T17:09:20.222Z,8.00
2022-11-10T17:11:48.451Z,6.47
2022-11-10T17:14:17.942Z,6.10
2022-11-10T17:16:47.355Z,5.85
2022-11-10T17:19:19.927Z,5.82
2022-11-10T17:21:50.847Z,6.25
2022-11-10T17:24:19.301Z,10.10
2022-11-10T17:26:48.533Z,1.92
2022-11-10T17:29:22.018Z,4.25
2022-11-10T17:31:51.337Z,4.68
2022-11-10T17:34:19.735Z,4.47
2022-11-10T17:36:50.925Z,6.18
2022-11-10T17:39:19.580Z,4.65
2022-11-10T17:41:47.791Z,7.03
2022-11-10T17:44:17.315Z,5.60
2022-11-10T17:46:45.635Z,6.10
2022-11-10T17:49:13.949Z,3.83
2022-11-10T17:51:42.482Z,4.15
2022-11-10T17:54:15.712Z,6.13
2022-11-10T17:56:44.137Z,6.30
2022-11-10T17:59:12.620Z,4.78
2022-11-10T18:01:41.078Z,7.40
2022-11-10T18:04:13.696Z,4.45
2022-11-10T18:06:42.081Z,6.00
2022-11-10T18:09:10.386Z,5.28
2022-11-10T18:11:40.053Z,5.70
2022-11-10T18:14:09.066Z,7.10
2022-11-10T18:16:37.307Z,4.45
2022-11-10T18:19:06.849Z,9.02
2022-11-10T18:21:35.259Z,8.38
2022-11-10T18:24:03.695Z,7.05
2022-11-10T18:26:32.099Z,8.00
2022-11-10T18:29:01.642Z,2.97
2022-11-10T18:31:29.959Z,7.35
2022-11-10T18:33:58.241Z,7.40
2022-11-10T18:36:26.685Z,4.45
2022-11-10T18:38:54.980Z,11.52
2022-11-10T18:41:40.996Z,7.28
2022-11-10T18:44:10.651Z,5.13
2022-11-10T18:46:38.907Z,5.30
2022-11-10T18:49:07.274Z,6.95
2022-11-10T18:51:35.508Z,11.90
2022-11-10T18:54:04.144Z,9.07
2022-11-10T18:56:32.438Z,7.97
2022-11-10T18:59:00.785Z,9.77
2022-11-10T19:01:30.559Z,7.78
2022-11-10T19:03:59.508Z,8.15
2022-11-10T19:06:27.957Z,6.22
2022-11-10T19:08:57.330Z,6.38
2022-11-10T19:11:26.811Z,10.00
2022-11-10T19:13:55.122Z,8.90
2022-11-10T19:16:23.479Z,16.98
2022-11-10T19:18:53.212Z,3.90
2022-11-10T19:21:23.674Z,4.00
2022-11-10T19:23:55.911Z,4.38
2022-11-10T19:26:25.604Z,6.20
2022-11-10T19:28:55.603Z,8.77
2022-11-10T19:31:25.222Z,4.72
2022-11-10T19:33:57.066Z,3.63
2022-11-10T19:36:27.060Z,6.88
2022-11-10T19:38:56.273Z,8.35
2022-11-10T19:41:26.078Z,5.32
2022-11-10T19:43:54.933Z,8.35
2022-11-10T19:46:25.298Z,10.82
2022-11-10T19:48:58.172Z,8.00
2022-11-10T19:51:26.863Z,14.40
2022-11-10T19:54:01.357Z,11.13
2022-11-10T19:56:32.154Z,7.57
2022-11-10T19:59:00.802Z,9.93
2022-11-10T20:01:29.424Z,9.18
2022-11-10T20:04:00.953Z,8.25
2022-11-10T20:06:29.190Z,12.18
2022-11-10T20:08:57.501Z,9.70
2022-11-10T20:11:27.566Z,10.20
2022-11-10T20:13:57.645Z,14.02
2022-11-10T20:16:26.098Z,11.88
2022-11-10T20:18:54.414Z,17.23
2022-11-10T20:21:24.174Z,6.90
2022-11-10T20:23:56.336Z,11.60
2022-11-10T20:26:26.091Z,8.18
2022-11-10T20:28:54.464Z,12.40
2022-11-10T20:31:26.005Z,8.88
2022-11-10T20:33:55.787Z,14.10
2022-11-10T20:36:27.724Z,12.40
2022-11-10T20:38:59.244Z,13.35
2022-11-10T20:41:29.696Z,17.70
2022-11-10T20:43:58.266Z,13.07
2022-11-10T20:46:48.069Z,17.55
2022-11-10T20:49:15.021Z,13.95
2022-11-10T20:51:44.633Z,6.65
2022-11-10T20:54:15.116Z,12.00
2022-11-10T20:56:43.402Z,16.10
2022-11-10T20:59:12.135Z,15.50
2022-11-10T21:01:40.528Z,14.88
2022-11-10T21:04:08.941Z,21.75
2022-11-10T21:06:37.419Z,16.85
2022-11-10T21:09:07.839Z,16.40
2022-11-10T21:11:53.778Z,21.08
2022-11-10T21:14:22.066Z,17.08
2022-11-10T21:16:50.435Z,16.58
2022-11-10T21:19:21.072Z,15.55
2022-11-10T21:21:51.037Z,18.95
2022-11-10T21:24:20.743Z,18.50
2022-11-10T21:26:50.106Z,20.27
2022-11-10T21:29:18.358Z,25.58
2022-11-10T21:31:46.634Z,23.20
2022-11-10T21:34:14.872Z,24.70
2022-11-10T21:36:43.181Z,24.05
2022-11-10T21:39:11.475Z,21.60
2022-11-10T21:41:41.125Z,24.65
2022-11-10T21:44:09.462Z,25.17
2022-11-10T21:46:37.782Z,26.30
2022-11-10T21:49:07.876Z,25.58
2022-11-10T21:51:36.524Z,27.98
2022-11-10T21:54:04.836Z,31.13
2022-11-10T21:56:33.203Z,31.73
2022-11-10T21:59:02.946Z,25.77
2022-11-10T22:01:31.259Z,35.70
2022-11-10T22:03:59.543Z,37.42
2022-11-10T22:06:44.718Z,32.88
2022-11-10T22:09:12.978Z,38.95
2022-11-10T22:12:01.821Z,33.13
2022-11-10T22:14:49.107Z,27.25
2022-11-10T22:17:34.915Z,30.58
2022-11-10T22:20:03.221Z,34.47
2022-11-10T22:22:31.689Z,34.53
2022-11-10T22:24:59.934Z,30.92
2022-11-10T22:27:30.432Z,33.72
2022-11-10T22:30:00.077Z,33.60
2022-11-10T22:32:28.294Z,33.22
2022-11-10T22:34:56.648Z,33.65
2022-11-10T22:37:24.897Z,30.80
2022-11-10T22:40:13.126Z,31.17
2022-11-10T22:42:58.945Z,32.20
2022-11-10T22:45:28.639Z,30.77
2022-11-10T22:48:13.909Z,32.67
2022-11-10T22:50:42.558Z,35.90
2022-11-10T22:53:13.076Z,31.15
2022-11-10T22:55:41.304Z,35.95
2022-11-10T22:58:09.578Z,33.33
2022-11-10T23:00:39.231Z,31.98
2022-11-10T23:03:07.527Z,35.88
2022-11-10T23:05:35.792Z,32.63
2022-11-10T23:08:04.175Z,31.25
2022-11-10T23:10:32.462Z,35.58
2022-11-10T23:13:00.684Z,36.28
2022-11-10T23:15:29.234Z,33.58
2022-11-10T23:18:02.440Z,34.42
2022-11-10T23:20:36.817Z,35.05
2022-11-10T23:23:05.055Z,27.40
2022-11-10T23:25:36.636Z,35.05
2022-11-10T23:28:07.422Z,28.92
2022-11-10T23:30:35.760Z,30.10
2022-11-10T23:33:05.405Z,31.10
2022-11-10T23:35:36.310Z,29.20
2022-11-10T23:38:04.752Z,32.80
2022-11-10T23:40:35.625Z,30.35
2022-11-10T23:43:04.013Z,34.40
2022-11-10T23:46:00.098Z,27.75
2022-11-10T23:48:22.812Z,31.80
2022-11-10T23:50:54.570Z,25.65
2022-11-10T23:53:25.751Z,31.50
2022-11-10T23:56:01.256Z,29.90
2022-11-10T23:58:30.046Z,28.35
